createdAt,value
2022-12-04T07:37:54.314Z,62.95
2022-12-04T07:40:21.648Z,56.50
2022-12-04T07:42:49.916Z,55.57
2022-12-04T07:45:17.381Z,50.93
2022-12-04T07:47:44.534Z,53.00
2022-12-04T07:50:12.885Z,51.37
2022-12-04T07:52:40.939Z,57.43
2022-12-04T07:55:09.502Z,52.70
2022-12-04T07:57:37.898Z,52.07
2022-12-04T08:00:06.121Z,55.17
2022-12-04T08:02:40.335Z,55.00
2022-12-04T08:05:07.845Z,54.17
2022-12-04T08:07:36.056Z,51.17
2022-12-04T08:10:03.980Z,53.67
2022-12-04T08:12:33.701Z,49.30
2022-12-04T08:15:01.259Z,47.03
2022-12-04T08:17:28.588Z,55.43
2022-12-04T08:19:56.013Z,50.97
2022-12-04T08:22:25.595Z,52.60
2022-12-04T08:24:54.833Z,49.43
2022-12-04T08:27:23.148Z,52.87
2022-12-04T08:29:51.378Z,49.37
2022-12-04T08:32:19.748Z,46.07
2022-12-04T08:34:55.547Z,49.33
2022-12-04T08:37:23.431Z,58.70
2022-12-04T08:39:50.753Z,52.47
2022-12-04T08:42:17.976Z,52.23
2022-12-04T08:44:45.944Z,51.20
2022-12-04T08:47:13.201Z,50.97
2022-12-04T08:49:40.377Z,55.93
2022-12-04T08:52:09.697Z,51.93
2022-12-04T08:54:36.931Z,49.37
2022-12-04T08:57:04.329Z,46.47
2022-12-04T08:59:31.682Z,46.63
2022-12-04T09:01:59.004Z,43.10
2022-12-04T09:04:27.720Z,47.47
2022-12-04T09:06:54.929Z,46.57
2022-12-04T09:09:22.217Z,49.97
2022-12-04T09:11:49.463Z,48.10
2022-12-04T09:14:17.099Z,50.27
2022-12-04T09:16:46.348Z,51.10
2022-12-04T09:19:14.665Z,55.20
2022-12-04T09:21:42.904Z,43.13
2022-12-04T09:24:11.156Z,43.07
2022-12-04T09:26:39.861Z,39.50
2022-12-04T09:29:07.896Z,38.20
2022-12-04T09:31:36.133Z,40.23
2022-12-04T09:34:03.779Z,37.23
2022-12-04T09:36:30.982Z,35.83
2022-12-04T09:38:59.410Z,36.80
2022-12-04T09:41:58.934Z,36.43
2022-12-04T09:44:36.827Z,37.00
2022-12-04T09:47:11.190Z,37.83
2022-12-04T09:50:05.125Z,39.37
2022-12-04T09:52:42.946Z,45.40
2022-12-04T09:55:51.860Z,36.83
2022-12-04T09:58:22.659Z,41.40
2022-12-04T10:00:52.078Z,40.67
2022-12-04T10:03:21.601Z,40.27
2022-12-04T10:06:01.923Z,39.27
2022-12-04T10:08:36.957Z,38.20
2022-12-04T10:11:13.392Z,39.00
2022-12-04T10:13:53.376Z,38.90
2022-12-04T10:16:27.523Z,40.87
2022-12-04T10:19:23.500Z,36.87
2022-12-04T10:22:10.288Z,38.43
2022-12-04T10:24:51.023Z,40.00
2022-12-04T10:27:25.007Z,39.13
2022-12-04T10:29:57.444Z,41.53
2022-12-04T10:32:33.483Z,34.37
2022-12-04T10:35:24.660Z,39.93
2022-12-04T10:37:59.700Z,38.43
2022-12-04T10:40:43.260Z,37.03
2022-12-04T10:43:41.921Z,40.67
2022-12-04T10:46:20.119Z,38.87
2022-12-04T10:48:50.428Z,39.63
2022-12-04T10:51:23.261Z,35.27
2022-12-04T10:53:52.147Z,33.90
2022-12-04T10:56:26.062Z,34.13
2022-12-04T10:59:03.516Z,34.03
2022-12-04T11:01:34.002Z,34.60
2022-12-04T11:04:09.705Z,36.10
2022-12-04T11:06:39.062Z,35.80
2022-12-04T11:09:07.577Z,32.53
2022-12-04T11:11:36.048Z,31.17
2022-12-04T11:14:17.011Z,28.77
2022-12-04T11:17:01.983Z,29.07
2022-12-04T11:19:32.902Z,27.50
2022-12-04T11:22:21.023Z,27.20
2022-12-04T11:24:55.900Z,24.87
2022-12-04T11:27:35.365Z,26.63
2022-12-04T11:30:08.585Z,24.37
2022-12-04T11:32:42.211Z,25.17
2022-12-04T11:35:17.713Z,29.30
2022-12-04T11:38:16.860Z,27.07
2022-12-04T11:40:50.799Z,34.97
2022-12-04T11:43:20.200Z,31.77
2022-12-04T11:46:02.809Z,37.57
2022-12-04T11:48:32.853Z,77.93
2022-12-04T11:51:02.109Z,64.17
2022-12-04T11:53:33.086Z,108.70
2022-12-04T11:56:20.881Z,47.37
2022-12-04T11:59:04.568Z,30.70
2022-12-04T12:01:58.450Z,26.70
2022-12-04T12:04:44.710Z,28.87
2022-12-04T12:07:43.614Z,26.93
2022-12-04T12:10:46.616Z,26.97
2022-12-04T12:13:40.185Z,28.70
2022-12-04T12:16:31.301Z,28.67
2022-12-04T12:19:13.164Z,26.87
2022-12-04T12:21:56.427Z,28.20
2022-12-04T12:24:27.238Z,26.70
2022-12-04T12:27:04.707Z,24.70
2022-12-04T12:30:09.683Z,21.60
2022-12-04T12:32:47.140Z,25.60
2022-12-04T12:35:34.631Z,22.63
2022-12-04T12:38:06.625Z,24.47
2022-12-04T12:40:48.918Z,26.17
2022-12-04T12:43:31.152Z,24.27
2022-12-04T12:46:01.894Z,22.87
2022-12-04T12:48:52.525Z,24.23
2022-12-04T12:51:34.286Z,22.33
2022-12-04T12:54:11.444Z,23.93
2022-12-04T12:56:49.791Z,21.80
2022-12-04T12:59:22.812Z,22.50
2022-12-04T13:02:00.738Z,21.87
2022-12-04T13:04:48.571Z,22.90
2022-12-04T13:07:19.388Z,21.43
2022-12-04T13:10:25.863Z,20.30
2022-12-04T13:13:26.125Z,21.83
2022-12-04T13:16:06.108Z,23.07
2022-12-04T13:18:42.425Z,19.70
2022-12-04T13:21:22.805Z,19.93
2022-12-04T13:24:22.863Z,28.43
2022-12-04T13:27:12.203Z,36.67
2022-12-04T13:29:52.198Z,31.27
2022-12-04T13:32:23.904Z,29.80
2022-12-04T13:35:22.955Z,20.37
2022-12-04T13:38:22.015Z,21.03
2022-12-04T13:41:15.769Z,22.73
2022-12-04T13:43:42.987Z,21.03
2022-12-04T13:46:49.805Z,19.23
2022-12-04T13:49:34.975Z,21.27
2022-12-04T13:52:20.367Z,21.90
2022-12-04T13:55:00.880Z,22.07
2022-12-04T13:57:28.448Z,18.93
2022-12-04T14:00:25.036Z,22.63
2022-12-04T14:02:57.648Z,22.23
2022-12-04T14:05:42.966Z,19.07
2022-12-04T14:08:20.491Z,18.23
2022-12-04T14:11:12.159Z,19.07
2022-12-04T14:13:49.667Z,19.80
2022-12-04T14:16:19.550Z,21.80
2022-12-04T14:18:56.421Z,20.03
2022-12-04T14:21:24.996Z,20.80
2022-12-04T14:23:53.449Z,21.27
2022-12-04T14:26:37.246Z,20.63
2022-12-04T14:29:28.470Z,19.60
2022-12-04T14:31:58.229Z,21.40
2022-12-04T14:34:33.199Z,19.93
2022-12-04T14:37:02.179Z,21.87
2022-12-04T14:39:32.464Z,22.33
2022-12-04T14:42:14.386Z,23.20
2022-12-04T14:44:44.432Z,22.13
2022-12-04T14:47:44.424Z,22.83
2022-12-04T14:50:25.611Z,23.73
2022-12-04T14:53:17.066Z,22.67
2022-12-04T14:56:07.282Z,21.63
2022-12-04T14:58:38.994Z,24.47
2022-12-04T15:01:28.408Z,24.37
2022-12-04T15:04:00.122Z,23.07
2022-12-04T15:06:31.531Z,22.70
2022-12-04T15:09:27.889Z,24.10
2022-12-04T15:12:17.458Z,20.33
2022-12-04T15:14:50.406Z,24.47
2022-12-04T15:17:19.757Z,25.30
2022-12-04T15:19:48.895Z,24.47
2022-12-04T15:22:24.802Z,24.43
2022-12-04T15:24:55.245Z,22.67
2022-12-04T15:27:31.941Z,26.60
2022-12-04T15:30:02.438Z,25.40
2022-12-04T15:32:32.281Z,25.10
2022-12-04T15:35:10.436Z,28.53
2022-12-04T15:37:38.233Z,27.40
2022-12-04T15:40:08.971Z,29.33
2022-12-04T15:42:36.339Z,37.13
2022-12-04T15:45:10.512Z,101.60
2022-12-04T15:47:42.062Z,44.03
2022-12-04T15:50:15.284Z,54.90
2022-12-04T15:53:12.968Z,44.73
2022-12-04T15:55:49.630Z,30.43
2022-12-04T15:58:28.215Z,30.60
2022-12-04T16:01:02.322Z,35.97
2022-12-04T16:03:53.517Z,32.27
2022-12-04T16:06:29.649Z,36.07
2022-12-04T16:09:17.445Z,34.83
2022-12-04T16:11:45.278Z,34.67
2022-12-04T16:14:12.478Z,36.70
2022-12-04T16:16:43.904Z,35.73
2022-12-04T16:19:37.458Z,38.93
2022-12-04T16:22:14.614Z,33.53
2022-12-04T16:24:44.519Z,36.37
2022-12-04T16:27:15.313Z,36.90
2022-12-04T16:29:44.844Z,38.93
2022-12-04T16:32:16.135Z,40.33
2022-12-04T16:34:43.350Z,37.53
2022-12-04T16:37:19.008Z,41.03
2022-12-04T16:39:48.478Z,37.83
2022-12-04T16:42:17.753Z,39.37
2022-12-04T16:44:49.494Z,36.13
2022-12-04T16:47:19.861Z,39.70
2022-12-04T16:49:50.686Z,35.63
2022-12-04T16:52:18.680Z,37.60
2022-12-04T16:54:46.524Z,37.47
2022-12-04T16:57:15.811Z,39.00
2022-12-04T16:59:44.025Z,36.93
2022-12-04T17:02:27.545Z,37.73
2022-12-04T17:04:57.840Z,37.50
2022-12-04T17:07:25.779Z,39.00
2022-12-04T17:09:55.115Z,44.50
2022-12-04T17:12:22.503Z,35.67
2022-12-04T17:14:50.766Z,36.63
2022-12-04T17:17:18.097Z,36.70
2022-12-04T17:19:46.682Z,36.27
2022-12-04T17:22:21.194Z,37.67
2022-12-04T17:24:55.768Z,37.67
2022-12-04T17:27:24.681Z,38.47
2022-12-04T17:29:53.434Z,37.50
2022-12-04T17:32:22.025Z,38.43
2022-12-04T17:34:54.788Z,39.03
2022-12-04T17:37:22.588Z,36.10
2022-12-04T17:39:51.205Z,39.23
2022-12-04T17:42:24.589Z,36.07
2022-12-04T17:44:53.060Z,35.77
2022-12-04T17:47:21.585Z,35.47
2022-12-04T17:49:52.002Z,38.07
2022-12-04T17:52:22.510Z,38.77
2022-12-04T17:54:52.040Z,37.17
2022-12-04T17:57:21.675Z,35.53
2022-12-04T17:59:50.050Z,35.47
2022-12-04T18:02:18.905Z,39.83
2022-12-04T18:04:49.276Z,38.70
2022-12-04T18:07:17.841Z,37.07
2022-12-04T18:09:46.158Z,35.57
2022-12-04T18:12:14.846Z,38.57
2022-12-04T18:14:43.088Z,37.90
2022-12-04T18:17:12.408Z,37.50
2022-12-04T18:19:40.575Z,34.80
2022-12-04T18:22:09.157Z,36.67
2022-12-04T18:24:38.545Z,35.90
2022-12-04T18:27:08.292Z,37.50
2022-12-04T18:29:35.835Z,39.07
2022-12-04T18:32:03.180Z,36.17
2022-12-04T18:34:30.733Z,38.87
2022-12-04T18:36:57.883Z,37.03
2022-12-04T18:39:27.038Z,38.73
2022-12-04T18:41:57.669Z,37.37
2022-12-04T18:44:26.263Z,34.80
2022-12-04T18:46:54.475Z,37.50
2022-12-04T18:49:22.718Z,38.90
2022-12-04T18:51:50.536Z,38.50
2022-12-04T18:54:23.493Z,38.53
2022-12-04T18:56:52.683Z,36.37
2022-12-04T18:59:23.784Z,38.60
2022-12-04T19:01:52.126Z,36.97
2022-12-04T19:04:23.537Z,40.53
2022-12-04T19:06:53.592Z,36.57
2022-12-04T19:10:02.084Z,40.90
2022-12-04T19:12:16.565Z,42.13
2022-12-04T19:14:45.824Z,40.27
2022-12-04T19:17:13.683Z,41.23
2022-12-04T19:19:40.986Z,41.80
2022-12-04T19:22:09.283Z,41.87
2022-12-04T19:24:37.559Z,42.47
2022-12-04T19:27:11.307Z,41.33
2022-12-04T19:29:40.803Z,44.80
2022-12-04T19:32:12.082Z,46.17
2022-12-04T19:34:40.237Z,43.17
2022-12-04T19:37:08.518Z,39.53
2022-12-04T19:39:35.858Z,44.50
2022-12-04T19:42:04.248Z,45.10
2022-12-04T19:47:19.623Z,42.47
2022-12-04T19:49:47.659Z,43.00
2022-12-04T19:52:17.003Z,44.47
2022-12-04T19:54:44.355Z,44.10
2022-12-04T19:57:14.943Z,43.23
2022-12-04T19:59:46.254Z,40.60
2022-12-04T20:02:16.586Z,43.07
2022-12-04T20:04:44.911Z,45.90
2022-12-04T20:07:16.142Z,45.13
2022-12-04T20:09:48.730Z,43.00
2022-12-04T20:12:21.230Z,43.97
2022-12-04T20:14:48.735Z,41.37
2022-12-04T20:17:15.909Z,40.83
2022-12-04T20:19:44.737Z,42.30
2022-12-04T20:22:11.968Z,42.43
2022-12-04T20:24:40.250Z,43.63
2022-12-04T20:27:07.568Z,41.70
2022-12-04T20:29:35.923Z,43.27
2022-12-04T20:32:05.177Z,41.43
2022-12-04T20:34:43.500Z,43.00
2022-12-04T20:37:13.407Z,46.53
2022-12-04T20:39:42.177Z,44.53
2022-12-04T20:42:10.532Z,40.37
2022-12-04T20:44:40.032Z,40.57
2022-12-04T20:47:08.236Z,44.27
2022-12-04T20:49:35.635Z,41.80
2022-12-04T20:52:04.930Z,44.00
2022-12-04T20:54:41.287Z,45.40
2022-12-04T20:57:09.933Z,43.87
2022-12-04T20:59:38.305Z,41.40
2022-12-04T21:02:05.647Z,48.13
2022-12-04T21:04:38.348Z,46.87
2022-12-04T21:07:06.558Z,44.37
2022-12-04T21:09:33.958Z,42.40
2022-12-04T21:12:24.311Z,43.83
2022-12-04T21:15:10.260Z,46.63
2022-12-04T21:17:37.606Z,42.50
2022-12-04T21:20:08.083Z,43.93
2022-12-04T21:22:36.610Z,47.60
2022-12-04T21:25:04.359Z,42.40
2022-12-04T21:27:32.663Z,43.23
2022-12-04T21:30:02.310Z,41.67
2022-12-04T21:32:30.619Z,39.67
2022-12-04T21:34:58.003Z,40.00
2022-12-04T21:37:25.318Z,40.87
2022-12-04T21:39:52.574Z,38.20
2022-12-04T21:42:30.771Z,41.77
2022-12-04T21:44:59.707Z,40.37
2022-12-04T21:47:28.939Z,43.93
2022-12-04T21:49:56.677Z,41.13
2022-12-04T21:52:24.308Z,39.97
2022-12-04T21:54:54.040Z,41.47
2022-12-04T21:57:23.410Z,34.20
2022-12-04T21:59:55.035Z,38.90
2022-12-04T22:02:22.803Z,37.03
2022-12-04T22:04:53.159Z,35.23
2022-12-04T22:07:20.644Z,37.67
2022-12-04T22:09:49.394Z,37.53
2022-12-04T22:12:47.793Z,31.97
2022-12-04T22:15:05.229Z,32.47
2022-12-04T22:17:32.403Z,34.03
2022-12-04T22:19:59.784Z,31.87
2022-12-04T22:22:28.217Z,35.17
2022-12-04T22:24:56.619Z,31.00
2022-12-04T22:27:23.996Z,32.03
2022-12-04T22:29:52.814Z,29.17
2022-12-04T22:32:20.438Z,28.43
2022-12-04T22:34:50.892Z,29.17
2022-12-04T22:37:18.761Z,29.47
2022-12-04T22:39:50.809Z,28.10
2022-12-04T22:42:19.111Z,28.60
2022-12-04T22:44:46.342Z,29.50
2022-12-04T22:47:15.614Z,26.40
2022-12-04T22:49:43.849Z,26.20
2022-12-04T22:52:12.174Z,26.47
2022-12-04T22:54:44.903Z,25.77
2022-12-04T22:57:13.208Z,28.73
2022-12-04T22:59:40.548Z,29.67
2022-12-04T23:02:07.869Z,26.93
2022-12-04T23:04:35.063Z,28.70
2022-12-04T23:07:07.374Z,33.77
2022-12-04T23:09:36.636Z,32.10
2022-12-04T23:12:05.016Z,28.67
2022-12-04T23:14:35.836Z,35.00
2022-12-04T23:17:13.271Z,33.37
2022-12-04T23:19:40.498Z,34.70
2022-12-04T23:22:08.677Z,33.20
2022-12-04T23:24:39.117Z,34.77
2022-12-04T23:27:06.396Z,31.83
2022-12-04T23:32:21.147Z,36.83
2022-12-04T23:34:49.392Z,31.37
2022-12-04T23:37:17.678Z,32.17
2022-12-04T23:39:44.912Z,34.17
2022-12-04T23:42:13.227Z,30.87
2022-12-04T23:44:42.460Z,32.37
2022-12-04T23:47:10.838Z,30.30
2022-12-04T23:49:39.050Z,28.17
2022-12-04T23:52:06.343Z,30.67
2022-12-04T23:54:35.106Z,27.00
2022-12-04T23:57:03.109Z,30.57
2022-12-04T23:59:32.366Z,30.53
